createdAt,value
2019-02-10T00:01:53.773Z,15.90
2019-02-10T00:04:25.030Z,16.97
2019-02-10T00:06:58.826Z,15.60
2019-02-10T00:09:34.432Z,13.70
2019-02-10T00:12:08.157Z,15.70
2019-02-10T00:14:40.360Z,15.10
2019-02-10T00:17:13.680Z,14.40
2019-02-10T00:19:46.852Z,14.70
2019-02-10T00:22:20.741Z,15.10
2019-02-10T00:24:53.946Z,14.20
2019-02-10T00:27:27.941Z,14.10
2019-02-10T00:29:59.206Z,14.57
2019-02-10T00:32:35.511Z,14.30
2019-02-10T00:35:06.966Z,14.37
2019-02-10T00:37:41.277Z,14.43
2019-02-10T00:40:13.912Z,17.27
2019-02-10T00:42:46.983Z,16.70
2019-02-10T00:45:19.876Z,16.65
2019-02-10T00:47:51.268Z,19.20
2019-02-10T00:50:25.337Z,15.77
2019-02-10T00:52:58.946Z,14.97
2019-02-10T00:55:33.022Z,14.60
2019-02-10T00:58:07.041Z,14.47
2019-02-10T01:00:38.309Z,16.00
2019-02-10T01:03:12.758Z,17.60
2019-02-10T01:05:45.937Z,18.67
2019-02-10T01:08:19.934Z,18.20
2019-02-10T01:10:51.621Z,15.60
2019-02-10T01:13:25.278Z,15.93
2019-02-10T01:15:58.185Z,15.50
2019-02-10T01:18:31.696Z,14.53
2019-02-10T01:21:03.771Z,14.00
2019-02-10T01:23:35.188Z,15.47
2019-02-10T01:26:08.174Z,14.90
2019-02-10T01:28:40.651Z,13.97
2019-02-10T01:31:13.148Z,16.17
2019-02-10T01:33:44.411Z,14.93
2019-02-10T01:36:18.196Z,14.43
2019-02-10T01:38:51.161Z,14.73
2019-02-10T01:41:23.376Z,15.80
2019-02-10T01:43:57.253Z,14.58
2019-02-10T01:46:28.524Z,15.83
2019-02-10T01:49:02.320Z,14.10
2019-02-10T01:51:36.301Z,14.03
2019-02-10T01:54:10.346Z,13.60
2019-02-10T01:56:46.927Z,15.73
2019-02-10T01:59:18.779Z,14.43
2019-02-10T02:01:52.385Z,13.90
2019-02-10T02:04:24.483Z,13.77
2019-02-10T02:06:57.805Z,13.80
2019-02-10T02:09:30.463Z,14.27
2019-02-10T02:12:04.524Z,15.30
2019-02-10T02:14:38.473Z,16.10
2019-02-10T02:17:09.835Z,16.50
2019-02-10T02:19:41.113Z,14.93
2019-02-10T02:22:14.527Z,16.27
2019-02-10T02:24:48.532Z,14.87
2019-02-10T02:27:22.618Z,15.15
2019-02-10T02:29:56.564Z,16.00
2019-02-10T02:32:30.357Z,14.80
2019-02-10T02:35:01.650Z,15.37
2019-02-10T02:37:35.713Z,14.57
2019-02-10T02:40:11.229Z,15.35
2019-02-10T02:42:43.442Z,16.57
2019-02-10T02:45:14.774Z,16.43
2019-02-10T02:47:46.479Z,14.97
2019-02-10T02:50:18.490Z,15.32
2019-02-10T02:52:52.505Z,15.83
2019-02-10T02:55:23.772Z,15.60
2019-02-10T02:57:59.249Z,16.57
2019-02-10T03:00:31.683Z,16.48
2019-02-10T03:03:06.198Z,16.52
2019-02-10T03:05:39.672Z,15.67
2019-02-10T03:08:13.530Z,18.40
2019-02-10T03:10:45.856Z,18.45
2019-02-10T03:13:18.655Z,17.65
2019-02-10T03:15:51.768Z,18.70
2019-02-10T03:18:25.758Z,18.07
2019-02-10T03:20:59.851Z,17.67
2019-02-10T03:23:33.783Z,20.67
2019-02-10T03:26:05.167Z,16.00
2019-02-10T03:28:36.877Z,17.87
2019-02-10T03:31:09.729Z,17.53
2019-02-10T03:33:41.044Z,18.37
2019-02-10T03:36:14.814Z,16.40
2019-02-10T03:38:46.673Z,34.57
2019-02-10T03:41:19.858Z,29.40
2019-02-10T03:43:53.881Z,18.87
2019-02-10T03:46:29.400Z,18.00
2019-02-10T03:49:01.802Z,16.23
2019-02-10T03:51:36.062Z,17.35
2019-02-10T03:54:07.786Z,18.43
2019-02-10T03:56:40.604Z,17.27
2019-02-10T03:59:13.010Z,24.00
2019-02-10T04:01:46.933Z,22.32
2019-02-10T04:04:19.609Z,23.13
2019-02-10T04:06:50.928Z,20.43
2019-02-10T04:09:26.412Z,19.95
2019-02-10T04:11:58.898Z,18.47
2019-02-10T04:14:30.179Z,19.10
2019-02-10T04:17:01.460Z,19.23
2019-02-10T04:19:33.854Z,17.67
2019-02-10T04:22:09.544Z,17.37
2019-02-10T04:24:40.987Z,17.53
2019-02-10T04:27:13.625Z,17.57
2019-02-10T04:29:47.036Z,16.77
2019-02-10T04:32:22.567Z,14.50
2019-02-10T04:34:54.947Z,12.25
2019-02-10T04:37:30.571Z,14.17
2019-02-10T04:40:02.990Z,14.47
2019-02-10T04:42:34.510Z,13.87
2019-02-10T04:45:06.167Z,15.13
2019-02-10T04:47:40.445Z,15.50
2019-02-10T04:50:13.142Z,13.23
2019-02-10T04:52:48.629Z,13.15
2019-02-10T04:55:21.109Z,15.20
2019-02-10T04:57:53.059Z,15.13
2019-02-10T05:00:26.073Z,14.35
2019-02-10T05:02:57.465Z,15.00
2019-02-10T05:05:28.791Z,15.50
2019-02-10T05:08:02.127Z,14.77
2019-02-10T05:10:34.199Z,16.10
2019-02-10T05:13:07.375Z,15.33
2019-02-10T05:15:40.086Z,15.67
2019-02-10T05:18:15.721Z,14.97
2019-02-10T05:20:48.195Z,14.60
2019-02-10T05:23:19.439Z,14.35
2019-02-10T05:25:50.760Z,15.90
2019-02-10T05:28:22.496Z,15.07
2019-02-10T05:30:54.121Z,14.63
2019-02-10T05:33:28.307Z,15.10
2019-02-10T05:36:02.386Z,14.23
2019-02-10T05:38:35.395Z,15.60
2019-02-10T05:41:07.496Z,16.57
2019-02-10T05:43:41.078Z,13.50
2019-02-10T05:46:14.381Z,14.57
2019-02-10T05:48:47.420Z,18.37
2019-02-10T05:51:19.336Z,17.92
2019-02-10T05:53:53.438Z,17.23
2019-02-10T05:56:27.348Z,16.50
2019-02-10T05:59:01.374Z,17.43
2019-02-10T06:02:05.233Z,15.70
2019-02-10T06:04:41.853Z,16.00
2019-02-10T06:07:16.642Z,16.70
2019-02-10T06:09:50.388Z,19.10
2019-02-10T06:12:24.412Z,16.70
2019-02-10T06:14:55.676Z,18.13
2019-02-10T06:17:29.443Z,17.85
2019-02-10T06:20:05.238Z,18.00
2019-02-10T06:22:37.500Z,17.83
2019-02-10T06:25:12.125Z,16.87
2019-02-10T06:27:44.473Z,16.70
2019-02-10T06:30:16.301Z,16.83
2019-02-10T06:32:47.578Z,19.13
2019-02-10T06:35:20.638Z,18.67
2019-02-10T06:37:56.175Z,17.83
2019-02-10T06:40:29.601Z,16.10
2019-02-10T06:43:03.664Z,17.90
2019-02-10T06:45:37.342Z,18.43
2019-02-10T06:48:08.623Z,18.50
2019-02-10T06:50:40.896Z,17.50
2019-02-10T06:53:12.530Z,19.80
2019-02-10T06:55:44.835Z,24.90
2019-02-10T06:58:17.678Z,27.90
2019-02-10T07:00:59.296Z,25.77
2019-02-10T07:03:55.355Z,23.75
2019-02-10T07:06:26.847Z,25.32
2019-02-10T07:09:02.445Z,23.07
2019-02-10T07:11:34.668Z,24.80
2019-02-10T07:14:18.443Z,25.77
2019-02-10T07:17:23.314Z,24.80
2019-02-10T07:20:52.217Z,20.73
2019-02-10T07:24:07.224Z,25.50
2019-02-10T07:26:55.145Z,24.70
2019-02-10T07:29:58.389Z,21.80
2019-02-10T07:32:38.874Z,20.53
2019-02-10T07:35:31.307Z,21.07
2019-02-10T07:38:17.016Z,20.20
2019-02-10T07:41:30.767Z,22.80
2019-02-10T07:44:56.993Z,21.00
2019-02-10T07:47:55.793Z,20.53
2019-02-10T07:51:17.877Z,19.90
2019-02-10T07:54:56.302Z,19.90
2019-02-10T07:58:02.501Z,20.30
2019-02-10T08:01:11.548Z,19.80
2019-02-10T08:04:27.685Z,19.30
2019-02-10T08:07:38.916Z,16.83
2019-02-10T08:10:29.411Z,18.10
2019-02-10T08:13:41.007Z,15.40
2019-02-10T08:16:39.177Z,13.93
2019-02-10T08:19:23.215Z,15.65
2019-02-10T08:22:51.400Z,14.70
2019-02-10T08:25:53.481Z,18.10
2019-02-10T08:29:01.854Z,15.57
2019-02-10T08:32:31.561Z,12.47
2019-02-10T08:35:44.331Z,10.20
2019-02-10T08:38:59.217Z,8.83
2019-02-10T08:42:22.084Z,9.77
2019-02-10T08:45:37.939Z,11.00
2019-02-10T08:48:51.594Z,12.90
2019-02-10T08:52:19.766Z,13.50
2019-02-10T08:54:53.077Z,13.47
2019-02-10T08:57:26.908Z,14.10
2019-02-10T08:59:58.174Z,15.13
2019-02-10T09:02:31.628Z,16.10
2019-02-10T09:05:05.853Z,16.00
2019-02-10T09:07:40.830Z,14.47
2019-02-10T09:10:13.413Z,15.77
2019-02-10T09:12:47.138Z,15.07
2019-02-10T09:15:18.923Z,14.97
2019-02-10T09:17:53.766Z,15.63
2019-02-10T09:20:27.669Z,14.40
2019-02-10T09:22:59.184Z,16.03
2019-02-10T09:25:33.386Z,16.80
2019-02-10T09:28:07.016Z,17.27
2019-02-10T09:30:42.037Z,18.20
2019-02-10T09:33:14.402Z,17.83
2019-02-10T09:35:47.407Z,20.07
2019-02-10T09:38:19.383Z,17.90
2019-02-10T09:40:52.448Z,20.73
2019-02-10T09:43:26.467Z,20.23
2019-02-10T09:46:02.115Z,21.80
2019-02-10T09:48:33.400Z,19.07
2019-02-10T09:51:05.430Z,21.83
2019-02-10T09:53:38.317Z,21.27
2019-02-10T09:56:10.690Z,20.50
2019-02-10T09:58:44.505Z,22.10
2019-02-10T10:01:16.546Z,23.77
2019-02-10T10:03:50.107Z,25.30
2019-02-10T10:06:22.764Z,26.83
2019-02-10T10:08:55.525Z,29.90
2019-02-10T10:11:28.506Z,33.20
2019-02-10T10:14:04.228Z,30.60
2019-02-10T10:16:36.560Z,31.35
2019-02-10T10:19:12.525Z,31.77
2019-02-10T10:21:44.542Z,32.30
2019-02-10T10:24:17.648Z,32.30
2019-02-10T10:26:51.510Z,33.27
2019-02-10T10:29:24.543Z,31.93
2019-02-10T10:31:55.829Z,30.83
2019-02-10T10:34:29.753Z,33.70
2019-02-10T10:37:05.352Z,29.90
2019-02-10T10:39:39.563Z,30.20
2019-02-10T10:42:13.743Z,30.70
2019-02-10T10:44:44.997Z,30.40
2019-02-10T10:47:18.829Z,31.27
2019-02-10T10:49:51.717Z,30.47
2019-02-10T10:52:24.730Z,31.90
2019-02-10T10:54:56.762Z,34.20
2019-02-10T10:57:29.745Z,33.33
2019-02-10T11:00:02.926Z,34.63
2019-02-10T11:02:34.859Z,36.77
2019-02-10T11:05:09.417Z,37.20
2019-02-10T11:07:41.239Z,36.63
2019-02-10T11:10:13.338Z,35.77
2019-02-10T11:12:44.729Z,37.60
2019-02-10T11:15:18.141Z,36.38
2019-02-10T11:17:49.401Z,36.85
2019-02-10T11:20:22.335Z,37.40
2019-02-10T11:22:53.972Z,37.50
2019-02-10T11:25:25.750Z,36.93
2019-02-10T11:27:57.046Z,34.20
2019-02-10T11:30:30.885Z,37.70
2019-02-10T11:33:03.820Z,38.43
2019-02-10T11:35:38.036Z,40.63
2019-02-10T11:38:11.920Z,38.10
2019-02-10T11:40:44.933Z,40.07
2019-02-10T11:43:16.458Z,42.25
2019-02-10T11:45:49.805Z,40.33
2019-02-10T11:48:21.081Z,37.60
2019-02-10T11:50:55.046Z,37.10
2019-02-10T11:53:28.960Z,35.33
2019-02-10T11:56:01.889Z,35.57
2019-02-10T11:58:35.138Z,36.33
2019-02-10T12:01:06.414Z,35.27
2019-02-10T12:03:37.733Z,36.50
2019-02-10T12:06:12.584Z,34.33
2019-02-10T12:08:44.961Z,34.93
2019-02-10T12:11:16.244Z,34.27
2019-02-10T12:13:47.891Z,36.70
2019-02-10T12:16:20.962Z,34.10
2019-02-10T12:18:54.309Z,32.50
2019-02-10T12:21:27.128Z,35.03
2019-02-10T12:23:58.671Z,33.07
2019-02-10T12:26:29.937Z,30.13
2019-02-10T12:29:03.070Z,31.40
2019-02-10T12:31:37.605Z,31.10
2019-02-10T12:34:11.133Z,30.73
2019-02-10T12:36:45.041Z,29.30
2019-02-10T12:39:18.211Z,30.92
2019-02-10T12:41:49.532Z,28.50
2019-02-10T12:44:20.799Z,30.87
2019-02-10T12:46:54.210Z,29.33
2019-02-10T12:49:27.069Z,32.10
2019-02-10T12:51:58.355Z,28.90
2019-02-10T12:54:31.155Z,30.37
2019-02-10T12:57:03.220Z,30.57
2019-02-10T12:59:38.787Z,30.63
2019-02-10T13:02:10.683Z,29.40
2019-02-10T13:04:41.944Z,31.37
2019-02-10T13:07:15.281Z,31.10
2019-02-10T13:09:46.662Z,28.80
2019-02-10T13:12:20.327Z,30.30
2019-02-10T13:14:55.035Z,28.63
2019-02-10T13:17:29.789Z,29.67
2019-02-10T13:20:04.009Z,30.27
2019-02-10T13:22:35.346Z,31.90
2019-02-10T13:25:11.410Z,31.47
2019-02-10T13:27:46.119Z,32.40
2019-02-10T13:30:18.489Z,32.27
2019-02-10T13:32:50.657Z,33.77
2019-02-10T13:35:24.503Z,33.63
2019-02-10T13:37:58.394Z,33.50
2019-02-10T13:40:31.402Z,33.30
2019-02-10T13:43:05.410Z,33.23
2019-02-10T13:45:39.505Z,34.10
2019-02-10T13:48:10.779Z,33.63
2019-02-10T13:50:42.080Z,33.43
2019-02-10T13:53:15.234Z,34.17
2019-02-10T13:55:48.548Z,34.17
2019-02-10T13:58:24.078Z,34.10
2019-02-10T14:00:55.474Z,32.80
2019-02-10T14:03:29.471Z,35.50
2019-02-10T14:06:01.121Z,34.47
2019-02-10T14:08:34.556Z,35.10
2019-02-10T14:11:08.582Z,37.20
2019-02-10T14:13:40.605Z,35.53
2019-02-10T14:16:13.642Z,37.60
2019-02-10T14:18:46.595Z,36.13
2019-02-10T14:21:20.498Z,37.97
2019-02-10T14:23:51.963Z,39.53
2019-02-10T14:26:23.263Z,35.87
2019-02-10T14:28:56.689Z,38.33
2019-02-10T14:31:30.594Z,39.23
2019-02-10T14:34:04.561Z,41.23
2019-02-10T14:36:37.719Z,39.87
2019-02-10T14:39:11.609Z,39.80
2019-02-10T14:41:45.699Z,40.50
2019-02-10T14:44:18.713Z,41.03
2019-02-10T14:46:52.666Z,39.23
2019-02-10T14:49:28.321Z,41.83
2019-02-10T14:52:00.766Z,40.98
2019-02-10T14:54:35.585Z,41.63
2019-02-10T14:57:07.919Z,41.80
2019-02-10T14:59:41.565Z,41.50
2019-02-10T15:02:12.896Z,40.00
2019-02-10T15:04:44.832Z,42.27
2019-02-10T15:07:25.307Z,42.77
2019-02-10T15:09:50.833Z,39.70
2019-02-10T15:12:22.164Z,42.40
2019-02-10T15:14:55.870Z,42.63
2019-02-10T15:17:27.163Z,44.57
2019-02-10T15:20:00.816Z,44.90
2019-02-10T15:22:33.801Z,42.40
2019-02-10T15:25:07.244Z,44.90
2019-02-10T15:27:38.871Z,43.60
2019-02-10T15:30:12.562Z,43.77
2019-02-10T15:32:45.847Z,43.63
2019-02-10T15:35:19.879Z,43.48
2019-02-10T15:37:52.853Z,42.03
2019-02-10T15:40:24.913Z,44.63
2019-02-10T15:42:58.831Z,47.20
2019-02-10T15:45:32.016Z,45.63
2019-02-10T15:48:03.262Z,43.70
2019-02-10T15:50:37.027Z,42.60
2019-02-10T15:53:10.908Z,42.83
2019-02-10T15:55:42.181Z,45.13
2019-02-10T15:58:14.911Z,43.60
2019-02-10T16:00:48.052Z,43.20
2019-02-10T16:03:21.900Z,46.57
2019-02-10T16:05:53.987Z,48.57
2019-02-10T16:08:27.043Z,45.30
2019-02-10T16:10:59.178Z,47.50
2019-02-10T16:13:32.115Z,47.30
2019-02-10T16:16:06.118Z,49.10
2019-02-10T16:18:39.006Z,44.90
2019-02-10T16:21:11.068Z,45.30
2019-02-10T16:23:42.365Z,45.97
2019-02-10T16:26:15.001Z,44.20
2019-02-10T16:28:46.288Z,53.90
2019-02-10T16:31:20.282Z,57.70
2019-02-10T16:33:53.139Z,47.50
2019-02-10T16:36:27.164Z,50.67
2019-02-10T16:39:01.531Z,50.33
2019-02-10T16:41:35.186Z,53.93
2019-02-10T16:44:09.263Z,48.63
2019-02-10T16:46:41.546Z,52.00
2019-02-10T16:49:13.164Z,48.83
2019-02-10T16:51:45.438Z,49.33
2019-02-10T16:54:18.278Z,50.10
2019-02-10T16:56:54.183Z,48.60
2019-02-10T16:59:25.900Z,51.70
2019-02-10T17:01:59.396Z,50.95
2019-02-10T17:04:33.313Z,49.77
2019-02-10T17:07:09.126Z,48.75
2019-02-10T17:09:41.683Z,51.87
2019-02-10T17:12:14.410Z,51.20
2019-02-10T17:14:45.756Z,48.60
2019-02-10T17:17:17.118Z,47.80
2019-02-10T17:19:50.439Z,50.90
2019-02-10T17:22:24.003Z,54.77
2019-02-10T17:24:57.418Z,56.83
2019-02-10T17:27:30.529Z,50.88
2019-02-10T17:30:02.474Z,59.40
2019-02-10T17:32:36.563Z,69.57
2019-02-10T17:35:10.848Z,54.48
2019-02-10T17:37:42.227Z,49.30
2019-02-10T17:40:18.496Z,72.77
2019-02-10T17:42:50.659Z,67.77
2019-02-10T17:45:24.496Z,69.37
2019-02-10T17:47:55.946Z,60.73
2019-02-10T17:50:27.285Z,54.07
2019-02-10T17:53:00.613Z,54.37
2019-02-10T17:55:34.604Z,55.60
2019-02-10T17:58:08.661Z,53.73
2019-02-10T18:00:45.553Z,52.83
2019-02-10T18:03:19.752Z,53.23
2019-02-10T18:05:53.775Z,54.80
2019-02-10T18:08:26.617Z,52.40
2019-02-10T18:11:02.349Z,53.73
2019-02-10T18:13:34.614Z,52.53
2019-02-10T18:16:31.933Z,50.43
2019-02-10T18:19:16.915Z,53.40
2019-02-10T18:22:06.478Z,52.93
2019-02-10T18:25:09.136Z,53.30
2019-02-10T18:28:01.215Z,55.50
2019-02-10T18:30:42.804Z,55.28
2019-02-10T18:33:37.740Z,54.20
2019-02-10T18:36:36.100Z,53.47
2019-02-10T18:39:15.519Z,56.70
2019-02-10T18:42:06.598Z,53.77
2019-02-10T18:45:07.316Z,55.30
2019-02-10T18:48:01.091Z,55.03
2019-02-10T18:50:54.119Z,56.00
2019-02-10T18:53:38.230Z,55.10
2019-02-10T18:56:19.625Z,56.30
2019-02-10T18:59:00.348Z,55.47
2019-02-10T19:01:40.583Z,57.20
2019-02-10T19:04:30.600Z,57.00
2019-02-10T19:07:32.839Z,56.97
2019-02-10T19:10:17.476Z,57.73
2019-02-10T19:13:16.021Z,58.23
2019-02-10T19:16:05.644Z,57.10
2019-02-10T19:18:51.529Z,56.88
2019-02-10T19:21:46.435Z,58.60
2019-02-10T19:24:36.945Z,58.87
2019-02-10T19:27:21.795Z,59.50
2019-02-10T19:30:15.976Z,58.50
2019-02-10T19:33:08.061Z,57.13
2019-02-10T19:36:10.044Z,58.17
2019-02-10T19:38:53.393Z,55.70
2019-02-10T19:41:39.769Z,56.50
2019-02-10T19:44:29.267Z,57.07
2019-02-10T19:47:20.982Z,57.40
2019-02-10T19:50:23.571Z,58.50
2019-02-10T19:53:20.331Z,58.97
2019-02-10T19:56:15.950Z,61.33
2019-02-10T19:59:01.115Z,59.77
2019-02-10T20:02:06.159Z,57.55
2019-02-10T20:04:52.549Z,60.40
2019-02-10T20:07:43.372Z,64.00
2019-02-10T20:10:42.068Z,60.83
2019-02-10T20:13:39.316Z,62.07
2019-02-10T20:16:22.835Z,63.60
2019-02-10T20:19:15.885Z,64.07
2019-02-10T20:22:11.349Z,62.83
2019-02-10T20:25:00.425Z,66.07
2019-02-10T20:27:50.760Z,61.77
2019-02-10T20:30:51.239Z,63.27
2019-02-10T20:33:34.931Z,60.10
2019-02-10T20:36:33.406Z,60.70
2019-02-10T20:39:31.911Z,56.70
2019-02-10T20:42:41.552Z,61.80
2019-02-10T20:45:30.943Z,62.77
2019-02-10T20:48:24.072Z,63.80
2019-02-10T20:51:33.393Z,61.90
2019-02-10T20:54:24.131Z,60.60
2019-02-10T20:57:19.161Z,56.53
2019-02-10T21:00:08.981Z,50.77
2019-02-10T21:02:46.717Z,51.35
2019-02-10T21:05:42.014Z,51.97
2019-02-10T21:08:34.248Z,51.73
2019-02-10T21:11:25.574Z,53.20
2019-02-10T21:14:14.515Z,51.40
2019-02-10T21:17:07.881Z,52.97
2019-02-10T21:19:58.130Z,53.17
2019-02-10T21:22:51.223Z,52.00
2019-02-10T21:25:52.591Z,55.67
2019-02-10T21:28:34.746Z,54.33
2019-02-10T21:31:19.866Z,55.13
2019-02-10T21:34:28.494Z,54.13
2019-02-10T21:37:13.370Z,55.37
2019-02-10T21:40:16.646Z,54.50
2019-02-10T21:43:02.896Z,59.47
2019-02-10T21:45:53.286Z,55.87
2019-02-10T21:48:32.606Z,55.27
2019-02-10T21:51:05.653Z,53.47
2019-02-10T21:53:39.708Z,56.95
2019-02-10T21:56:12.651Z,56.00
2019-02-10T21:58:44.135Z,55.13
2019-02-10T22:01:17.704Z,51.43
2019-02-10T22:03:51.835Z,50.23
2019-02-10T22:06:24.794Z,50.37
2019-02-10T22:09:00.398Z,49.30
2019-02-10T22:11:32.694Z,48.97
2019-02-10T22:14:04.052Z,46.67
2019-02-10T22:16:37.885Z,48.43
2019-02-10T22:19:11.757Z,45.80
2019-02-10T22:21:46.177Z,46.00
2019-02-10T22:24:18.926Z,45.40
2019-02-10T22:26:51.811Z,44.93
2019-02-10T22:29:23.707Z,44.65
2019-02-10T22:31:54.967Z,39.67
2019-02-10T22:34:27.753Z,42.20
2019-02-10T22:37:01.670Z,39.77
2019-02-10T22:39:33.031Z,35.30
2019-02-10T22:42:07.296Z,37.80
2019-02-10T22:44:39.814Z,35.20
2019-02-10T22:47:15.334Z,33.97
2019-02-10T22:49:47.835Z,30.10
2019-02-10T22:52:19.100Z,28.00
2019-02-10T22:54:51.154Z,18.83
2019-02-10T22:57:22.797Z,12.60
2019-02-10T22:59:54.048Z,10.53
2019-02-10T23:02:27.881Z,7.63
2019-02-10T23:05:01.898Z,5.97
2019-02-10T23:07:33.207Z,4.60
2019-02-10T23:10:05.932Z,2.80
2019-02-10T23:12:37.882Z,1.50
2019-02-10T23:15:11.715Z,0.97
2019-02-10T23:17:44.170Z,0.67
2019-02-10T23:20:16.230Z,0.57
2019-02-10T23:22:49.402Z,0.50
2019-02-10T23:25:20.844Z,0.60
2019-02-10T23:27:54.828Z,0.60
2019-02-10T23:30:28.639Z,0.60
2019-02-10T23:32:59.878Z,0.43
2019-02-10T23:35:34.595Z,0.40
2019-02-10T23:38:06.990Z,0.40
2019-02-10T23:40:41.335Z,0.70
2019-02-10T23:43:15.607Z,0.60
2019-02-10T23:45:49.197Z,0.40
2019-02-10T23:48:20.435Z,0.50
2019-02-10T23:50:54.959Z,0.80
2019-02-10T23:53:27.978Z,0.50
2019-02-10T23:56:02.787Z,0.53
2019-02-10T23:58:35.138Z,0.50
